createdAt,value
2016-09-11T00:00:17.877Z,25.01
2016-09-11T00:00:50.214Z,25.07
2016-09-11T00:01:22.526Z,25.04
2016-09-11T00:01:54.854Z,25.02
2016-09-11T00:02:27.185Z,25.02
2016-09-11T00:02:59.546Z,24.96
2016-09-11T00:03:31.948Z,25.02
2016-09-11T00:04:04.335Z,25
2016-09-11T00:04:36.696Z,25.01
2016-09-11T00:05:09.004Z,25
2016-09-11T00:05:41.305Z,25.05
2016-09-11T00:06:13.621Z,25.01
2016-09-11T00:06:45.944Z,25.05
2016-09-11T00:07:18.303Z,25.02
2016-09-11T00:07:50.627Z,24.92
2016-09-11T00:08:22.982Z,24.96
2016-09-11T00:08:55.309Z,25.04
2016-09-11T00:09:27.616Z,25.02
2016-09-11T00:09:59.995Z,24.97
2016-09-11T00:10:33.145Z,25.01
2016-09-11T00:11:05.519Z,24.97
2016-09-11T00:11:37.881Z,24.96
2016-09-11T00:12:10.197Z,25.04
2016-09-11T00:12:42.566Z,25
2016-09-11T00:13:14.866Z,24.97
2016-09-11T00:13:47.184Z,25
2016-09-11T00:14:19.525Z,24.92
2016-09-11T00:14:51.974Z,24.87
2016-09-11T00:15:24.392Z,24.97
2016-09-11T00:15:56.715Z,24.96
2016-09-11T00:16:29.165Z,24.93
2016-09-11T00:17:01.461Z,25.02
2016-09-11T00:17:34.058Z,24.92
2016-09-11T00:18:06.378Z,24.97
2016-09-11T00:18:38.729Z,25.04
2016-09-11T00:19:11.048Z,24.92
2016-09-11T00:19:43.362Z,24.97
2016-09-11T00:20:15.711Z,24.97
2016-09-11T00:20:48.096Z,24.94
2016-09-11T00:21:20.475Z,24.96
2016-09-11T00:21:52.808Z,24.96
2016-09-11T00:22:25.143Z,24.93
2016-09-11T00:22:57.665Z,25
2016-09-11T00:23:29.991Z,24.92
2016-09-11T00:24:02.311Z,24.89
2016-09-11T00:24:34.653Z,24.94
2016-09-11T00:25:06.958Z,24.92
2016-09-11T00:25:39.265Z,24.92
2016-09-11T00:26:11.608Z,24.9
2016-09-11T00:26:43.982Z,24.93
2016-09-11T00:27:16.303Z,24.93
2016-09-11T00:27:48.620Z,24.89
2016-09-11T00:28:21.049Z,24.97
2016-09-11T00:28:53.356Z,24.93
2016-09-11T00:29:25.665Z,24.89
2016-09-11T00:29:57.973Z,24.9
2016-09-11T00:30:30.368Z,24.96
2016-09-11T00:31:02.819Z,24.87
2016-09-11T00:31:35.265Z,24.94
2016-09-11T00:32:08.205Z,24.94
2016-09-11T00:32:40.567Z,24.93
2016-09-11T00:33:12.973Z,24.92
2016-09-11T00:33:45.287Z,24.85
2016-09-11T00:34:17.616Z,24.9
2016-09-11T00:34:49.968Z,24.89
2016-09-11T00:35:22.500Z,24.9
2016-09-11T00:35:54.812Z,24.83
2016-09-11T00:36:27.120Z,24.93
2016-09-11T00:36:59.433Z,24.93
2016-09-11T00:37:31.751Z,24.96
2016-09-11T00:38:04.114Z,24.89
2016-09-11T00:38:36.441Z,24.89
2016-09-11T00:39:08.909Z,24.85
2016-09-11T00:39:41.310Z,24.77
2016-09-11T00:40:13.705Z,24.92
2016-09-11T00:40:46.014Z,24.83
2016-09-11T00:41:18.318Z,24.86
2016-09-11T00:41:50.629Z,24.87
2016-09-11T00:42:23.087Z,24.83
2016-09-11T00:42:55.486Z,24.89
2016-09-11T00:43:27.856Z,24.85
2016-09-11T00:44:00.176Z,24.87
2016-09-11T00:44:32.577Z,24.8
2016-09-11T00:45:04.894Z,24.89
2016-09-11T00:45:37.193Z,24.83
2016-09-11T00:46:09.527Z,24.8
2016-09-11T00:46:41.832Z,24.78
2016-09-11T00:47:14.182Z,24.86
2016-09-11T00:47:46.510Z,24.78
2016-09-11T00:48:18.807Z,24.8
2016-09-11T00:48:51.123Z,24.85
2016-09-11T00:49:23.705Z,24.77
2016-09-11T00:49:56.035Z,24.7
2016-09-11T00:50:28.440Z,24.86
2016-09-11T00:51:00.861Z,24.77
2016-09-11T00:51:33.264Z,24.87
2016-09-11T00:52:05.758Z,24.82
2016-09-11T00:52:38.110Z,24.78
2016-09-11T00:53:10.519Z,24.7
2016-09-11T00:53:43.053Z,24.87
2016-09-11T00:54:15.385Z,24.77
2016-09-11T00:54:47.815Z,24.82
2016-09-11T00:55:20.142Z,24.78
2016-09-11T00:55:52.468Z,24.8
2016-09-11T00:56:24.773Z,24.75
2016-09-11T00:56:57.163Z,24.75
2016-09-11T00:57:29.514Z,24.83
2016-09-11T00:58:01.855Z,24.82
2016-09-11T00:58:34.311Z,24.78
2016-09-11T00:59:06.697Z,24.75
2016-09-11T00:59:39.130Z,24.75
2016-09-11T01:00:11.480Z,24.77
2016-09-11T01:00:43.838Z,24.82
2016-09-11T01:01:16.133Z,24.7
2016-09-11T01:01:48.462Z,24.77
2016-09-11T01:02:20.822Z,24.77
2016-09-11T01:02:53.147Z,24.83
2016-09-11T01:03:25.600Z,24.78
2016-09-11T01:03:57.955Z,24.74
2016-09-11T01:04:30.287Z,24.8
2016-09-11T01:05:02.697Z,24.75
2016-09-11T01:05:35.134Z,24.85
2016-09-11T01:06:07.478Z,24.78
2016-09-11T01:06:39.811Z,24.78
2016-09-11T01:07:12.194Z,24.78
2016-09-11T01:07:44.503Z,24.75
2016-09-11T01:08:16.827Z,24.78
2016-09-11T01:08:49.186Z,24.74
2016-09-11T01:09:21.536Z,24.78
2016-09-11T01:09:53.878Z,24.78
2016-09-11T01:10:26.195Z,24.74
2016-09-11T01:10:58.547Z,24.67
2016-09-11T01:11:30.904Z,24.77
2016-09-11T01:12:03.262Z,24.71
2016-09-11T01:12:36.011Z,24.66
2016-09-11T01:13:08.409Z,24.77
2016-09-11T01:13:40.753Z,24.78
2016-09-11T01:14:13.118Z,24.69
2016-09-11T01:14:45.442Z,24.71
2016-09-11T01:15:17.759Z,24.75
2016-09-11T01:15:50.101Z,24.74
2016-09-11T01:16:22.441Z,24.77
2016-09-11T01:16:54.853Z,24.74
2016-09-11T01:17:27.210Z,24.77
2016-09-11T01:17:59.531Z,24.7
2016-09-11T01:18:31.893Z,24.74
2016-09-11T01:19:04.263Z,24.71
2016-09-11T01:19:36.625Z,24.74
2016-09-11T01:20:08.941Z,24.77
2016-09-11T01:20:41.287Z,24.7
2016-09-11T01:21:13.583Z,24.66
2016-09-11T01:21:45.929Z,24.7
2016-09-11T01:22:18.239Z,24.74
2016-09-11T01:22:50.605Z,24.71
2016-09-11T01:23:22.928Z,24.71
2016-09-11T01:23:55.314Z,24.66
2016-09-11T01:24:27.636Z,24.66
2016-09-11T01:24:59.946Z,24.7
2016-09-11T01:25:32.829Z,24.66
2016-09-11T01:26:05.296Z,24.78
2016-09-11T01:26:37.620Z,24.67
2016-09-11T01:27:10.053Z,24.66
2016-09-11T01:27:42.383Z,24.71
2016-09-11T01:28:14.710Z,24.69
2016-09-11T01:28:47.044Z,24.69
2016-09-11T01:29:19.405Z,24.77
2016-09-11T01:29:51.745Z,24.71
2016-09-11T01:30:24.024Z,24.74
2016-09-11T01:30:56.350Z,24.7
2016-09-11T01:31:28.704Z,24.7
2016-09-11T01:32:01.040Z,24.74
2016-09-11T01:32:36.554Z,24.7
2016-09-11T01:33:09.371Z,24.71
2016-09-11T01:33:41.756Z,24.71
2016-09-11T01:34:14.101Z,24.64
2016-09-11T01:34:46.402Z,24.77
2016-09-11T01:35:18.724Z,24.66
2016-09-11T01:35:51.052Z,24.74
2016-09-11T01:36:23.377Z,24.75
2016-09-11T01:36:55.743Z,24.77
2016-09-11T01:37:28.062Z,24.66
2016-09-11T01:38:00.385Z,24.64
2016-09-11T01:38:33.089Z,24.74
2016-09-11T01:39:05.464Z,24.71
2016-09-11T01:39:37.929Z,24.67
2016-09-11T01:40:10.760Z,24.66
2016-09-11T01:40:43.338Z,24.71
2016-09-11T01:41:15.667Z,24.59
2016-09-11T01:41:47.970Z,24.58
2016-09-11T01:42:20.294Z,24.7
2016-09-11T01:42:52.636Z,24.66
2016-09-11T01:43:24.970Z,24.59
2016-09-11T01:43:57.322Z,24.61
2016-09-11T01:44:29.627Z,24.59
2016-09-11T01:45:02.754Z,24.69
2016-09-11T01:45:35.911Z,24.66
2016-09-11T01:46:08.234Z,24.64
2016-09-11T01:46:40.583Z,24.64
2016-09-11T01:47:13.046Z,24.61
2016-09-11T01:47:45.417Z,24.61
2016-09-11T01:48:17.761Z,24.66
2016-09-11T01:48:50.087Z,24.61
2016-09-11T01:49:22.515Z,24.64
2016-09-11T01:49:54.856Z,24.61
2016-09-11T01:50:27.176Z,24.61
2016-09-11T01:50:59.550Z,24.61
2016-09-11T01:51:32.085Z,24.61
2016-09-11T01:52:04.446Z,24.7
2016-09-11T01:52:36.802Z,24.64
2016-09-11T01:53:09.120Z,24.61
2016-09-11T01:53:42.012Z,24.61
2016-09-11T01:54:14.366Z,24.66
2016-09-11T01:54:46.698Z,24.64
2016-09-11T01:55:19.066Z,24.59
2016-09-11T01:55:51.396Z,24.67
2016-09-11T01:56:23.719Z,24.58
2016-09-11T01:56:56.038Z,24.59
2016-09-11T01:57:28.386Z,24.66
2016-09-11T01:58:00.821Z,24.67
2016-09-11T01:58:33.176Z,24.58
2016-09-11T01:59:05.503Z,24.61
2016-09-11T01:59:38.036Z,24.59
2016-09-11T02:00:10.386Z,24.56
2016-09-11T02:00:42.741Z,24.54
2016-09-11T02:01:15.056Z,24.61
2016-09-11T02:01:47.396Z,24.56
2016-09-11T02:02:19.725Z,24.63
2016-09-11T02:02:52.163Z,24.63
2016-09-11T02:03:24.440Z,24.54
2016-09-11T02:03:56.771Z,24.59
2016-09-11T02:04:29.101Z,24.58
2016-09-11T02:05:01.421Z,24.54
2016-09-11T02:05:34.466Z,24.58
2016-09-11T02:06:06.808Z,24.56
2016-09-11T02:06:39.277Z,24.56
2016-09-11T02:07:11.640Z,24.55
2016-09-11T02:07:43.959Z,24.54
2016-09-11T02:08:16.299Z,24.59
2016-09-11T02:08:48.641Z,24.59
2016-09-11T02:09:21.021Z,24.51
2016-09-11T02:09:53.486Z,24.56
2016-09-11T02:10:25.889Z,24.54
2016-09-11T02:10:58.212Z,24.54
2016-09-11T02:11:30.609Z,24.61
2016-09-11T02:12:02.954Z,24.59
2016-09-11T02:12:35.257Z,24.46
2016-09-11T02:13:07.587Z,24.55
2016-09-11T02:13:39.893Z,24.54
2016-09-11T02:14:12.230Z,24.52
2016-09-11T02:14:44.674Z,24.54
2016-09-11T02:15:17.068Z,24.54
2016-09-11T02:15:49.393Z,24.63
2016-09-11T02:16:21.729Z,24.58
2016-09-11T02:16:54.067Z,24.49
2016-09-11T02:17:26.438Z,24.54
2016-09-11T02:17:58.795Z,24.54
2016-09-11T02:18:31.389Z,24.44
2016-09-11T02:19:03.720Z,24.48
2016-09-11T02:19:36.041Z,24.59
2016-09-11T02:20:08.512Z,24.51
2016-09-11T02:20:41.045Z,24.46
2016-09-11T02:21:13.380Z,24.44
2016-09-11T02:21:45.707Z,24.49
2016-09-11T02:22:18.028Z,24.46
2016-09-11T02:22:50.408Z,24.48
2016-09-11T02:23:22.751Z,24.45
2016-09-11T02:23:55.075Z,24.54
2016-09-11T02:24:27.372Z,24.48
2016-09-11T02:24:59.711Z,24.45
2016-09-11T02:25:32.383Z,24.46
2016-09-11T02:26:04.984Z,24.51
2016-09-11T02:26:37.301Z,24.52
2016-09-11T02:27:09.703Z,24.52
2016-09-11T02:27:42.104Z,24.52
2016-09-11T02:28:14.420Z,24.51
2016-09-11T02:28:46.730Z,24.51
2016-09-11T02:29:19.051Z,24.52
2016-09-11T02:29:51.508Z,24.51
2016-09-11T02:30:23.991Z,24.48
2016-09-11T02:30:56.322Z,24.51
2016-09-11T02:31:28.689Z,24.51
2016-09-11T02:32:01.277Z,24.39
2016-09-11T02:32:33.678Z,24.42
2016-09-11T02:33:06.064Z,24.48
2016-09-11T02:33:38.394Z,24.42
2016-09-11T02:34:10.720Z,24.46
2016-09-11T02:34:43.039Z,24.42
2016-09-11T02:35:15.425Z,24.44
2016-09-11T02:35:47.938Z,24.49
2016-09-11T02:36:20.261Z,24.42
2016-09-11T02:36:52.571Z,24.37
2016-09-11T02:37:24.902Z,24.45
2016-09-11T02:37:57.217Z,24.48
2016-09-11T02:38:29.554Z,24.44
2016-09-11T02:39:01.887Z,24.37
2016-09-11T02:39:34.199Z,24.46
2016-09-11T02:40:06.547Z,24.39
2016-09-11T02:40:38.873Z,24.44
2016-09-11T02:41:11.242Z,24.45
2016-09-11T02:41:43.563Z,24.37
2016-09-11T02:42:15.945Z,24.4
2016-09-11T02:42:48.279Z,24.33
2016-09-11T02:43:20.603Z,24.37
2016-09-11T02:43:52.917Z,24.39
2016-09-11T02:44:25.294Z,24.4
2016-09-11T02:44:57.589Z,24.33
2016-09-11T02:45:29.983Z,24.33
2016-09-11T02:46:02.410Z,24.39
2016-09-11T02:46:34.764Z,24.37
2016-09-11T02:47:07.212Z,24.29
2016-09-11T02:47:39.648Z,24.27
2016-09-11T02:48:11.964Z,24.33
2016-09-11T02:48:44.386Z,24.4
2016-09-11T02:49:17.040Z,24.33
2016-09-11T02:49:49.399Z,24.37
2016-09-11T02:50:21.711Z,24.29
2016-09-11T02:50:54.002Z,24.36
2016-09-11T02:51:26.325Z,24.4
2016-09-11T02:51:58.650Z,24.33
2016-09-11T02:52:31.060Z,24.42
2016-09-11T02:53:03.537Z,24.3
2016-09-11T02:53:35.996Z,24.33
2016-09-11T02:54:08.340Z,24.33
2016-09-11T02:54:40.688Z,24.32
2016-09-11T02:55:13.134Z,24.3
2016-09-11T02:55:45.557Z,24.29
2016-09-11T02:56:17.871Z,24.29
2016-09-11T02:56:50.229Z,24.32
2016-09-11T02:57:22.562Z,24.3
2016-09-11T02:57:54.895Z,24.3
2016-09-11T02:58:27.229Z,24.3
2016-09-11T02:58:59.545Z,24.32
2016-09-11T02:59:31.921Z,24.3
2016-09-11T03:00:04.286Z,24.29
2016-09-11T03:00:36.642Z,24.32
2016-09-11T03:01:08.977Z,24.3
2016-09-11T03:01:41.308Z,24.29
2016-09-11T03:02:13.632Z,24.29
2016-09-11T03:02:45.952Z,24.27
2016-09-11T03:03:18.295Z,24.29
2016-09-11T03:03:50.645Z,24.3
2016-09-11T03:04:23.039Z,24.24
2016-09-11T03:04:55.380Z,24.26
2016-09-11T03:05:27.679Z,24.27
2016-09-11T03:06:00.033Z,24.29
2016-09-11T03:06:32.476Z,24.22
2016-09-11T03:07:04.815Z,24.32
2016-09-11T03:07:37.174Z,24.24
2016-09-11T03:08:09.490Z,24.3
2016-09-11T03:08:41.845Z,24.27
2016-09-11T03:09:14.212Z,24.26
2016-09-11T03:09:46.518Z,24.26
2016-09-11T03:10:18.840Z,24.27
2016-09-11T03:10:51.205Z,24.22
2016-09-11T03:11:23.516Z,24.24
2016-09-11T03:11:55.820Z,24.26
2016-09-11T03:12:28.157Z,24.22
2016-09-11T03:13:00.548Z,24.26
2016-09-11T03:13:33.253Z,24.24
2016-09-11T03:14:05.653Z,24.29
2016-09-11T03:14:38.187Z,24.26
2016-09-11T03:15:10.515Z,24.26
2016-09-11T03:15:42.874Z,24.24
2016-09-11T03:16:15.179Z,24.24
2016-09-11T03:16:47.519Z,24.24
2016-09-11T03:17:19.878Z,24.26
2016-09-11T03:17:52.197Z,24.22
2016-09-11T03:18:24.538Z,24.17
2016-09-11T03:18:56.948Z,24.24
2016-09-11T03:19:29.270Z,24.14
2016-09-11T03:20:01.739Z,24.19
2016-09-11T03:20:34.557Z,24.19
2016-09-11T03:21:06.866Z,24.18
2016-09-11T03:21:39.179Z,24.19
2016-09-11T03:22:11.542Z,24.19
2016-09-11T03:22:44.004Z,24.15
2016-09-11T03:23:16.315Z,24.19
2016-09-11T03:23:48.643Z,24.21
2016-09-11T03:24:20.975Z,24.18
2016-09-11T03:24:53.310Z,24.19
2016-09-11T03:25:25.611Z,24.15
2016-09-11T03:25:57.920Z,24.19
2016-09-11T03:26:30.219Z,24.26
2016-09-11T03:27:02.545Z,24.24
2016-09-11T03:27:34.954Z,24.21
2016-09-11T03:28:07.312Z,24.26
2016-09-11T03:28:39.649Z,24.21
2016-09-11T03:29:11.984Z,24.22
2016-09-11T03:29:44.328Z,24.24
2016-09-11T03:30:16.664Z,24.22
2016-09-11T03:30:49.047Z,24.21
2016-09-11T03:31:21.388Z,24.21
2016-09-11T03:31:53.737Z,24.18
2016-09-11T03:32:26.097Z,24.18
2016-09-11T03:32:58.404Z,24.19
2016-09-11T03:33:30.850Z,24.12
2016-09-11T03:34:03.605Z,24.19
2016-09-11T03:34:35.998Z,24.12
2016-09-11T03:35:08.300Z,24.11
2016-09-11T03:35:40.618Z,24.18
2016-09-11T03:36:12.964Z,24.09
2016-09-11T03:36:45.325Z,24.17
2016-09-11T03:37:17.855Z,24.18
2016-09-11T03:37:50.625Z,24.15
2016-09-11T03:38:22.975Z,24.09
2016-09-11T03:38:55.312Z,24.09
2016-09-11T03:39:27.824Z,24.12
2016-09-11T03:40:00.176Z,24.11
2016-09-11T03:40:33.456Z,24.04
2016-09-11T03:41:05.802Z,24.11
2016-09-11T03:41:38.141Z,24.14
2016-09-11T03:42:10.489Z,24.11
2016-09-11T03:42:42.912Z,24.04
2016-09-11T03:43:15.209Z,24.07
2016-09-11T03:43:47.687Z,24.09
2016-09-11T03:44:20.017Z,24.04
2016-09-11T03:44:52.340Z,24.04
2016-09-11T03:45:24.673Z,24.03
2016-09-11T03:45:56.993Z,24.09
2016-09-11T03:46:29.314Z,24.08
2016-09-11T03:47:01.634Z,24.04
2016-09-11T03:47:34.240Z,24.03
2016-09-11T03:48:06.566Z,24.08
2016-09-11T03:48:38.891Z,24.08
2016-09-11T03:49:11.303Z,24.09
2016-09-11T03:49:43.663Z,24.11
2016-09-11T03:50:15.975Z,24.11
2016-09-11T03:50:48.288Z,24.09
2016-09-11T03:51:20.642Z,24.04
2016-09-11T03:51:53.007Z,24.09
2016-09-11T03:52:25.311Z,24.11
2016-09-11T03:52:57.646Z,24.08
2016-09-11T03:53:30.040Z,24.09
2016-09-11T03:54:02.407Z,24.02
2016-09-11T03:54:34.740Z,23.99
2016-09-11T03:55:07.097Z,23.99
2016-09-11T03:55:39.446Z,24.02
2016-09-11T03:56:11.820Z,23.99
2016-09-11T03:56:44.127Z,24
2016-09-11T03:57:16.443Z,23.99
2016-09-11T03:57:48.909Z,23.99
2016-09-11T03:58:21.220Z,24.02
2016-09-11T03:58:53.562Z,23.97
2016-09-11T03:59:25.905Z,24.03
2016-09-11T03:59:58.218Z,24
2016-09-11T04:00:30.561Z,24
2016-09-11T04:01:02.848Z,24.02
2016-09-11T04:01:35.678Z,24.03
2016-09-11T04:02:07.995Z,24
2016-09-11T04:02:40.363Z,23.94
2016-09-11T04:03:12.786Z,23.97
2016-09-11T04:03:45.073Z,23.93
2016-09-11T04:04:17.413Z,24.02
2016-09-11T04:04:49.744Z,23.93
2016-09-11T04:05:22.061Z,23.99
2016-09-11T04:05:54.415Z,23.93
2016-09-11T04:06:26.736Z,23.97
2016-09-11T04:06:59.034Z,23.94
2016-09-11T04:07:31.446Z,23.93
2016-09-11T04:08:03.821Z,23.97
2016-09-11T04:08:36.137Z,23.94
2016-09-11T04:09:08.448Z,23.93
2016-09-11T04:09:40.782Z,23.96
2016-09-11T04:10:13.925Z,23.99
2016-09-11T04:10:46.358Z,23.93
2016-09-11T04:11:18.671Z,23.97
2016-09-11T04:11:50.977Z,23.99
2016-09-11T04:12:23.305Z,23.97
2016-09-11T04:12:55.637Z,23.99
2016-09-11T04:13:27.947Z,23.94
2016-09-11T04:14:00.285Z,23.92
2016-09-11T04:14:32.602Z,23.9
2016-09-11T04:15:04.923Z,23.96
2016-09-11T04:15:37.278Z,23.94
2016-09-11T04:16:09.608Z,23.9
2016-09-11T04:16:42.126Z,23.89
2016-09-11T04:17:14.447Z,23.96
2016-09-11T04:17:46.772Z,23.94
2016-09-11T04:18:19.132Z,23.94
2016-09-11T04:18:51.463Z,23.94
2016-09-11T04:19:23.759Z,23.92
2016-09-11T04:19:56.118Z,23.94
2016-09-11T04:20:28.505Z,23.93
2016-09-11T04:21:00.829Z,23.9
2016-09-11T04:21:33.284Z,23.93
2016-09-11T04:22:05.607Z,23.93
2016-09-11T04:22:37.975Z,23.92
2016-09-11T04:23:10.289Z,23.92
2016-09-11T04:23:42.668Z,23.99
2016-09-11T04:24:14.974Z,23.96
2016-09-11T04:24:47.448Z,23.87
2016-09-11T04:25:20.444Z,23.93
2016-09-11T04:25:52.781Z,23.79
2016-09-11T04:26:25.129Z,23.82
2016-09-11T04:26:57.497Z,23.89
2016-09-11T04:27:29.835Z,23.87
2016-09-11T04:28:02.182Z,23.79
2016-09-11T04:28:34.510Z,23.85
2016-09-11T04:29:06.834Z,23.81
2016-09-11T04:29:39.166Z,23.78
2016-09-11T04:30:11.504Z,23.77
2016-09-11T04:30:43.838Z,23.79
2016-09-11T04:31:16.175Z,23.77
2016-09-11T04:31:48.488Z,23.87
2016-09-11T04:32:20.821Z,23.9
2016-09-11T04:32:53.143Z,23.84
2016-09-11T04:33:25.467Z,23.84
2016-09-11T04:33:57.795Z,23.81
2016-09-11T04:34:30.124Z,23.82
2016-09-11T04:35:02.439Z,23.89
2016-09-11T04:35:34.743Z,23.82
2016-09-11T04:36:07.061Z,23.81
2016-09-11T04:36:39.480Z,23.77
2016-09-11T04:37:11.799Z,23.87
2016-09-11T04:37:44.147Z,23.85
2016-09-11T04:38:16.493Z,23.78
2016-09-11T04:38:48.792Z,23.82
2016-09-11T04:39:21.120Z,23.85
2016-09-11T04:39:53.452Z,23.78
2016-09-11T04:40:25.769Z,23.81
2016-09-11T04:40:58.079Z,23.77
2016-09-11T04:41:30.413Z,23.78
2016-09-11T04:42:02.742Z,23.75
2016-09-11T04:42:35.056Z,23.77
2016-09-11T04:43:07.428Z,23.79
2016-09-11T04:43:39.748Z,23.74
2016-09-11T04:44:12.095Z,23.78
2016-09-11T04:44:44.415Z,23.75
2016-09-11T04:45:16.719Z,23.75
2016-09-11T04:45:49.050Z,23.79
2016-09-11T04:46:21.378Z,23.75
2016-09-11T04:46:53.721Z,23.72
2016-09-11T04:47:26.043Z,23.74
2016-09-11T04:47:58.348Z,23.75
2016-09-11T04:48:30.655Z,23.77
2016-09-11T04:49:02.970Z,23.78
2016-09-11T04:49:35.287Z,23.75
2016-09-11T04:50:07.619Z,23.78
2016-09-11T04:50:39.949Z,23.77
2016-09-11T04:51:12.262Z,23.77
2016-09-11T04:51:44.571Z,23.77
2016-09-11T04:52:16.898Z,23.74
2016-09-11T04:52:49.222Z,23.7
2016-09-11T04:53:21.569Z,23.7
2016-09-11T04:53:53.871Z,23.72
2016-09-11T04:54:26.204Z,23.75
2016-09-11T04:54:58.520Z,23.74
2016-09-11T04:55:30.866Z,23.71
2016-09-11T04:56:03.186Z,23.64
2016-09-11T04:56:35.510Z,23.67
2016-09-11T04:57:07.816Z,23.67
2016-09-11T04:57:40.127Z,23.74
2016-09-11T04:58:12.437Z,23.74
2016-09-11T04:58:44.767Z,23.74
2016-09-11T04:59:17.121Z,23.75
2016-09-11T04:59:49.499Z,23.66
2016-09-11T05:00:21.820Z,23.74
2016-09-11T05:00:54.143Z,23.66
2016-09-11T05:01:26.459Z,23.66
2016-09-11T05:01:58.782Z,23.66
2016-09-11T05:02:31.175Z,23.66
2016-09-11T05:03:03.488Z,23.67
2016-09-11T05:03:35.819Z,23.66
2016-09-11T05:04:08.144Z,23.7
2016-09-11T05:04:40.474Z,23.7
2016-09-11T05:05:12.788Z,23.71
2016-09-11T05:05:45.116Z,23.67
2016-09-11T05:06:17.443Z,23.62
2016-09-11T05:06:49.860Z,23.66
2016-09-11T05:07:22.195Z,23.71
2016-09-11T05:07:54.529Z,23.64
2016-09-11T05:08:26.858Z,23.67
2016-09-11T05:08:59.162Z,23.67
2016-09-11T05:09:31.486Z,23.66
2016-09-11T05:10:03.794Z,23.66
2016-09-11T05:10:36.108Z,23.66
2016-09-11T05:11:08.436Z,23.71
2016-09-11T05:11:40.780Z,23.71
2016-09-11T05:12:13.105Z,23.63
2016-09-11T05:12:45.452Z,23.66
2016-09-11T05:13:17.789Z,23.67
2016-09-11T05:13:50.113Z,23.67
2016-09-11T05:14:22.426Z,23.66
2016-09-11T05:14:54.753Z,23.63
2016-09-11T05:15:27.080Z,23.66
2016-09-11T05:15:59.397Z,23.64
2016-09-11T05:16:31.758Z,23.66
2016-09-11T05:17:04.052Z,23.74
2016-09-11T05:17:36.372Z,23.67
2016-09-11T05:18:08.694Z,23.7
2016-09-11T05:18:41.006Z,23.71
2016-09-11T05:19:13.313Z,23.63
2016-09-11T05:19:45.640Z,23.66
2016-09-11T05:20:17.967Z,23.64
2016-09-11T05:20:50.296Z,23.62
2016-09-11T05:21:22.613Z,23.7
2016-09-11T05:21:54.961Z,23.66
2016-09-11T05:22:27.280Z,23.67
2016-09-11T05:22:59.583Z,23.71
2016-09-11T05:23:31.973Z,23.71
2016-09-11T05:24:04.293Z,23.71
2016-09-11T05:24:36.617Z,23.71
2016-09-11T05:25:08.927Z,23.71
2016-09-11T05:25:41.252Z,23.71
2016-09-11T05:26:13.547Z,23.72
2016-09-11T05:26:45.872Z,23.71
2016-09-11T05:27:18.213Z,23.63
2016-09-11T05:27:50.540Z,23.67
2016-09-11T05:28:22.863Z,23.66
2016-09-11T05:28:55.182Z,23.72
2016-09-11T05:29:27.513Z,23.67
2016-09-11T05:29:59.934Z,23.63
2016-09-11T05:30:32.260Z,23.71
2016-09-11T05:31:04.573Z,23.7
2016-09-11T05:31:36.880Z,23.71
2016-09-11T05:32:09.215Z,23.67
2016-09-11T05:32:41.551Z,23.71
2016-09-11T05:33:13.874Z,23.63
2016-09-11T05:33:46.211Z,23.66
2016-09-11T05:34:18.542Z,23.71
2016-09-11T05:34:50.877Z,23.67
2016-09-11T05:35:23.194Z,23.72
2016-09-11T05:35:55.524Z,23.7
2016-09-11T05:36:27.856Z,23.7
2016-09-11T05:37:00.193Z,23.72
2016-09-11T05:37:32.557Z,23.67
2016-09-11T05:38:04.881Z,23.67
2016-09-11T05:38:37.194Z,23.74
2016-09-11T05:39:09.492Z,23.7
2016-09-11T05:39:41.846Z,23.64
2016-09-11T05:40:14.355Z,23.67
2016-09-11T05:40:46.684Z,23.71
2016-09-11T05:41:19.009Z,23.74
2016-09-11T05:41:51.324Z,23.74
2016-09-11T05:42:23.653Z,23.72
2016-09-11T05:42:55.965Z,23.75
2016-09-11T05:43:28.276Z,23.7
2016-09-11T05:44:00.609Z,23.75
2016-09-11T05:44:32.936Z,23.67
2016-09-11T05:45:05.282Z,23.71
2016-09-11T05:45:37.590Z,23.7
2016-09-11T05:46:09.925Z,23.77
2016-09-11T05:46:42.272Z,23.78
2016-09-11T05:47:14.588Z,23.72
2016-09-11T05:47:46.914Z,23.72
2016-09-11T05:48:19.252Z,23.77
2016-09-11T05:48:51.569Z,23.74
2016-09-11T05:49:23.874Z,23.77
2016-09-11T05:49:56.194Z,23.77
2016-09-11T05:50:28.533Z,23.66
2016-09-11T05:51:00.863Z,23.74
2016-09-11T05:51:33.177Z,23.74
2016-09-11T05:52:05.535Z,23.72
2016-09-11T05:52:37.862Z,23.77
2016-09-11T05:53:10.276Z,23.79
2016-09-11T05:53:42.577Z,23.79
2016-09-11T05:54:14.925Z,23.75
2016-09-11T05:54:47.248Z,23.78
2016-09-11T05:55:19.564Z,23.77
2016-09-11T05:55:51.920Z,23.78
2016-09-11T05:56:24.252Z,23.75
2016-09-11T05:56:56.562Z,23.74
2016-09-11T05:57:28.901Z,23.77
2016-09-11T05:58:01.239Z,23.77
2016-09-11T05:58:33.550Z,23.78
2016-09-11T05:59:05.873Z,23.77
2016-09-11T05:59:38.174Z,23.75
2016-09-11T06:00:10.487Z,23.75
2016-09-11T06:00:42.825Z,23.82
2016-09-11T06:01:15.127Z,23.77
2016-09-11T06:01:47.437Z,23.84
2016-09-11T06:02:19.752Z,23.82
2016-09-11T06:02:52.067Z,23.84
2016-09-11T06:03:24.381Z,23.79
2016-09-11T06:03:56.716Z,23.84
2016-09-11T06:04:29.069Z,23.84
2016-09-11T06:05:01.559Z,23.81
2016-09-11T06:05:33.902Z,23.78
2016-09-11T06:06:06.213Z,23.84
2016-09-11T06:06:38.549Z,23.79
2016-09-11T06:07:10.864Z,23.85
2016-09-11T06:07:43.215Z,23.85
2016-09-11T06:08:15.556Z,23.85
2016-09-11T06:08:47.900Z,23.85
2016-09-11T06:09:20.218Z,23.89
2016-09-11T06:09:52.550Z,23.75
2016-09-11T06:10:24.867Z,23.87
2016-09-11T06:10:57.173Z,23.87
2016-09-11T06:11:29.507Z,23.93
2016-09-11T06:12:02.183Z,23.9
2016-09-11T06:12:34.742Z,23.87
2016-09-11T06:13:07.215Z,23.94
2016-09-11T06:13:39.539Z,23.89
2016-09-11T06:14:11.868Z,23.87
2016-09-11T06:14:44.178Z,23.94
2016-09-11T06:15:16.513Z,23.85
2016-09-11T06:15:48.837Z,23.9
2016-09-11T06:16:21.192Z,23.92
2016-09-11T06:16:53.667Z,23.93
2016-09-11T06:17:26.006Z,23.94
2016-09-11T06:17:58.741Z,23.94
2016-09-11T06:18:31.809Z,23.93
2016-09-11T06:19:04.147Z,23.92
2016-09-11T06:19:36.881Z,23.96
2016-09-11T06:20:09.221Z,23.92
2016-09-11T06:20:41.538Z,24
2016-09-11T06:21:13.864Z,23.93
2016-09-11T06:21:46.178Z,24.02
2016-09-11T06:22:18.513Z,24.02
2016-09-11T06:22:50.831Z,23.96
2016-09-11T06:23:23.159Z,23.97
2016-09-11T06:23:55.477Z,23.94
2016-09-11T06:24:27.868Z,23.94
2016-09-11T06:25:00.536Z,23.96
2016-09-11T06:25:36.393Z,23.92
2016-09-11T06:26:08.745Z,23.9
2016-09-11T06:26:41.095Z,23.92
2016-09-11T06:27:13.415Z,24
2016-09-11T06:27:45.759Z,23.97
2016-09-11T06:28:18.312Z,23.99
2016-09-11T06:28:50.746Z,23.97
2016-09-11T06:29:23.078Z,23.96
2016-09-11T06:29:55.415Z,24.02
2016-09-11T06:30:27.780Z,24
2016-09-11T06:31:00.130Z,24
2016-09-11T06:31:32.682Z,23.99
2016-09-11T06:32:05.060Z,24.03
2016-09-11T06:32:37.393Z,24
2016-09-11T06:33:09.724Z,24.02
2016-09-11T06:33:42.091Z,24.12
2016-09-11T06:34:14.496Z,24.12
2016-09-11T06:34:46.825Z,24.03
2016-09-11T06:35:19.152Z,24.07
2016-09-11T06:35:51.467Z,24.04
2016-09-11T06:36:23.786Z,24.07
2016-09-11T06:36:56.106Z,24.14
2016-09-11T06:37:28.449Z,24.14
2016-09-11T06:38:00.758Z,24.11
2016-09-11T06:38:33.215Z,24.15
2016-09-11T06:39:05.556Z,24.19
2016-09-11T06:39:37.897Z,24.08
2016-09-11T06:40:10.610Z,24.17
2016-09-11T06:40:43.018Z,24.18
2016-09-11T06:41:15.352Z,24.15
2016-09-11T06:41:47.751Z,24.19
2016-09-11T06:42:20.083Z,24.21
2016-09-11T06:42:52.546Z,24.22
2016-09-11T06:43:24.944Z,24.14
2016-09-11T06:43:57.277Z,24.27
2016-09-11T06:44:29.651Z,24.26
2016-09-11T06:45:03.492Z,24.32
2016-09-11T06:45:36.683Z,24.27
2016-09-11T06:46:09.024Z,24.15
2016-09-11T06:46:41.350Z,24.19
2016-09-11T06:47:13.694Z,24.29
2016-09-11T06:47:46.006Z,24.27
2016-09-11T06:48:18.531Z,24.26
2016-09-11T06:48:50.939Z,24.26
2016-09-11T06:49:23.245Z,24.22
2016-09-11T06:49:55.592Z,24.22
2016-09-11T06:50:27.952Z,24.24
2016-09-11T06:51:00.275Z,24.26
2016-09-11T06:51:32.675Z,24.21
2016-09-11T06:52:05.009Z,24.27
2016-09-11T06:52:37.354Z,24.24
2016-09-11T06:53:09.690Z,24.29
2016-09-11T06:53:42.068Z,24.33
2016-09-11T06:54:14.392Z,24.33
2016-09-11T06:54:46.732Z,24.32
2016-09-11T06:55:19.047Z,24.42
2016-09-11T06:55:51.384Z,24.37
2016-09-11T06:57:30.202Z,24.42
2016-09-11T06:58:03.024Z,24.27
2016-09-11T06:58:35.809Z,24.3
2016-09-11T06:59:08.176Z,24.4
2016-09-11T06:59:40.507Z,24.42